Time;durP1;ratioP1;P1;durP2;ratioP2;P2;SDS_P1;SDS_P2;PMS_P1;PMS_P2;Temp;Humidity;BMP_temperature;BMP_pressure;BME280_temperature;BME280_humidity;BME280_pressure;Samples;Min_cycle;Max_cycle;Signal;HPM_P1;HPM_P2
2023/06/11 00:01:29;;;;;;;8.35;4.47;;;;;;;19.61;100.00;101783.38;4977404;28;20049;-77
2023/06/11 00:03:57;;;;;;;9.33;4.40;;;;;;;19.59;100.00;101787.00;4992892;28;20050;-76
2023/06/11 00:06:25;;;;;;;10.55;3.75;;;;;;;19.58;100.00;101778.09;4972478;28;20053;-76
2023/06/11 00:08:54;;;;;;;11.02;4.47;;;;;;;19.57;100.00;101779.00;4998525;28;20046;-77
2023/06/11 00:11:22;;;;;;;8.02;4.35;;;;;;;19.55;100.00;101782.63;4962467;28;20054;-77
2023/06/11 00:13:50;;;;;;;9.95;4.18;;;;;;;19.52;100.00;101780.88;4982318;28;20079;-77
2023/06/11 00:16:17;;;;;;;8.20;4.40;;;;;;;19.50;100.00;101779.16;4950482;28;20050;-76
2023/06/11 00:18:45;;;;;;;5.90;4.07;;;;;;;19.47;100.00;101786.34;4983499;28;20050;-76
2023/06/11 00:21:13;;;;;;;8.15;4.25;;;;;;;19.46;100.00;101783.69;4961102;28;20045;-76
2023/06/11 00:23:41;;;;;;;6.78;3.92;;;;;;;19.44;100.00;101781.03;4967841;28;20046;-76
2023/06/11 00:26:09;;;;;;;8.07;4.85;;;;;;;19.44;100.00;101786.38;4938887;28;20057;-75
2023/06/11 00:28:39;;;;;;;5.85;4.38;;;;;;;19.44;100.00;101786.38;4927380;28;20045;-76
2023/06/11 00:31:06;;;;;;;8.45;4.80;;;;;;;19.43;100.00;101784.63;4915943;28;20050;-76
2023/06/11 00:33:33;;;;;;;7.25;4.38;;;;;;;19.42;100.00;101779.31;4970205;28;20049;-75
2023/06/11 00:36:02;;;;;;;13.80;4.35;;;;;;;19.40;100.00;101776.66;4959887;28;20050;-76
2023/06/11 00:38:29;;;;;;;7.55;4.60;;;;;;;19.37;100.00;101778.50;4969657;28;20050;-76
2023/06/11 00:40:57;;;;;;;6.38;4.97;;;;;;;19.36;100.00;101779.44;4941756;28;20093;-76
2023/06/11 00:43:26;;;;;;;7.65;4.68;;;;;;;19.35;100.00;101781.19;4935974;28;20042;-75
2023/06/11 00:45:54;;;;;;;5.38;4.13;;;;;;;19.32;100.00;101775.94;4973674;28;20042;-76
2023/06/11 00:48:21;;;;;;;8.55;4.05;;;;;;;19.28;100.00;101777.78;4945823;28;20058;-76
2023/06/11 00:50:51;;;;;;;7.70;4.88;;;;;;;19.27;100.00;101780.47;4951246;28;20051;-76
2023/06/11 00:53:21;;;;;;;7.20;5.20;;;;;;;19.24;100.00;101785.84;4961237;28;20047;-76
2023/06/11 00:55:48;;;;;;;8.27;5.03;;;;;;;19.24;100.00;101785.84;4975297;28;25158;-77
2023/06/11 00:58:17;;;;;;;7.40;5.07;;;;;;;19.22;100.00;101782.34;4962373;28;20057;-76
2023/06/11 01:00:47;;;;;;;5.30;4.45;;;;;;;19.19;100.00;101777.94;4965555;28;20054;-76
2023/06/11 01:03:21;;;;;;;8.32;5.20;;;;;;;19.18;100.00;101781.50;4943100;28;20047;-76
2023/06/11 01:05:52;;;;;;;8.32;4.45;;;;;;;19.18;100.00;101789.53;4966871;28;20051;-76
2023/06/11 01:08:20;;;;;;;7.95;4.78;;;;;;;19.19;100.00;101785.09;4990286;28;20046;-77
2023/06/11 01:10:51;;;;;;;7.45;4.88;;;;;;;19.20;100.00;101785.03;4940111;28;20050;-76
2023/06/11 01:13:20;;;;;;;7.65;4.50;;;;;;;19.21;100.00;101784.13;4979961;28;20061;-78
2023/06/11 01:15:48;;;;;;;8.18;5.15;;;;;;;19.22;100.00;101782.34;4971848;28;20049;-76
2023/06/11 01:18:19;;;;;;;8.82;4.43;;;;;;;19.19;100.00;101780.59;4942803;28;20446;-77
2023/06/11 01:21:01;;;;;;;9.52;5.18;;;;;;;19.18;100.00;101788.66;4985577;28;20046;-77
2023/06/11 01:23:40;;;;;;;14.57;5.10;;;;;;;19.16;100.00;101793.13;4980792;28;20241;-77
2023/06/11 01:26:14;;;;;;;12.73;5.30;;;;;;;19.15;100.00;101788.69;4989326;28;20752;-77
2023/06/11 01:28:46;;;;;;;7.30;4.63;;;;;;;19.14;100.00;101792.28;4963675;28;20049;-77
2023/06/11 01:31:15;;;;;;;5.93;4.78;;;;;;;19.11;100.00;101798.56;4985727;28;20514;-77
2023/06/11 01:33:43;;;;;;;9.00;5.07;;;;;;;19.09;100.00;101795.94;4964214;28;20049;-77
2023/06/11 01:36:14;;;;;;;7.70;4.60;;;;;;;19.06;100.00;101793.28;4997427;28;20046;-77
2023/06/11 01:38:42;;;;;;;8.85;5.25;;;;;;;19.04;100.00;101797.78;4967173;28;20065;-77
2023/06/11 01:41:18;;;;;;;12.40;4.90;;;;;;;19.02;100.00;101799.59;4969239;28;20058;-77
2023/06/11 01:43:46;;;;;;;10.35;4.63;;;;;;;18.98;100.00;101797.00;4960415;28;20045;-77
2023/06/11 01:46:14;;;;;;;9.32;5.03;;;;;;;18.94;100.00;101796.19;4967892;28;20042;-76
2023/06/11 01:48:41;;;;;;;7.93;5.10;;;;;;;18.91;100.00;101804.25;4945203;28;20551;-77
2023/06/11 01:51:09;;;;;;;11.07;5.60;;;;;;;18.89;100.00;101798.91;4991695;28;20062;-78
2023/06/11 01:53:36;;;;;;;8.23;5.05;;;;;;;18.88;100.00;101798.94;4952527;28;20512;-77
2023/06/11 01:56:03;;;;;;;8.15;5.22;;;;;;;18.87;100.00;101799.88;4971821;28;20047;-76
2023/06/11 01:58:32;;;;;;;8.90;5.35;;;;;;;18.84;100.00;101799.91;4958818;28;20054;-77
2023/06/11 02:01:02;;;;;;;10.38;5.45;;;;;;;18.83;100.00;101803.50;4978785;28;20041;-77
2023/06/11 02:03:29;;;;;;;6.82;5.25;;;;;;;18.80;100.00;101798.16;4958922;28;20061;-77
2023/06/11 02:05:57;;;;;;;9.63;6.00;;;;;;;18.79;100.00;101801.72;4981988;28;20046;-77
2023/06/11 02:08:26;;;;;;;10.93;5.80;;;;;;;18.75;100.00;101806.25;5004886;28;20057;-77
2023/06/11 02:10:53;;;;;;;7.13;5.15;;;;;;;18.74;100.00;101803.59;4982366;28;20046;-77
2023/06/11 02:13:21;;;;;;;7.75;5.35;;;;;;;18.72;100.00;101805.41;4972359;28;20058;-77
2023/06/11 02:15:48;;;;;;;6.63;5.05;;;;;;;18.69;100.00;101803.66;4954392;28;20061;-77
2023/06/11 02:18:16;;;;;;;7.40;5.38;;;;;;;18.66;100.00;101791.25;4968878;28;20069;-77
2023/06/11 02:20:43;;;;;;;7.28;5.53;;;;;;;18.64;100.00;101797.53;4941309;28;20057;-77
2023/06/11 02:23:10;;;;;;;6.35;5.57;;;;;;;18.61;100.00;101798.44;4963600;28;20058;-77
2023/06/11 02:25:38;;;;;;;11.40;5.22;;;;;;;18.58;100.00;101795.81;4964623;28;20176;-77
2023/06/11 02:28:05;;;;;;;10.07;5.35;;;;;;;18.58;100.00;101792.25;4994251;28;20050;-77
2023/06/11 02:30:33;;;;;;;8.32;5.28;;;;;;;18.56;100.00;101792.28;4965859;28;20519;-77
2023/06/11 02:33:00;;;;;;;12.20;5.78;;;;;;;18.55;100.00;101792.31;4977516;28;20054;-77
2023/06/11 02:35:29;;;;;;;8.35;5.28;;;;;;;18.51;100.00;101788.81;4941110;28;20046;-77
2023/06/11 02:37:57;;;;;;;14.95;5.82;;;;;;;18.50;100.00;101795.03;4970773;28;20062;-77
2023/06/11 02:40:24;;;;;;;9.07;5.63;;;;;;;18.46;100.00;101793.31;4961111;28;20057;-77
2023/06/11 02:42:52;;;;;;;8.68;5.38;;;;;;;18.45;100.00;101791.53;4995338;28;20065;-77
2023/06/11 02:45:19;;;;;;;10.80;5.70;;;;;;;18.42;100.00;101784.47;4973722;28;20056;-77
2023/06/11 02:47:46;;;;;;;9.23;5.95;;;;;;;18.39;100.00;101787.22;4970263;28;20042;-77
2023/06/11 02:50:14;;;;;;;9.73;5.80;;;;;;;18.37;100.00;101783.66;4977239;28;20057;-77
2023/06/11 02:52:41;;;;;;;9.25;6.15;;;;;;;18.35;100.00;101793.47;4972944;28;20090;-77
2023/06/11 02:55:09;;;;;;;7.97;5.55;;;;;;;18.33;100.00;101787.28;4973330;28;20050;-76
2023/06/11 02:57:37;;;;;;;12.10;6.05;;;;;;;18.30;100.00;101787.34;4968196;28;21453;-77
2023/06/11 03:00:06;;;;;;;9.48;5.97;;;;;;;18.29;100.00;101786.44;4990260;28;20424;-77
2023/06/11 03:02:33;;;;;;;8.77;5.70;;;;;;;18.27;100.00;101784.69;4939567;28;20054;-77
2023/06/11 03:05:00;;;;;;;15.95;6.18;;;;;;;18.24;100.00;101788.31;4959683;28;20072;-77
2023/06/11 03:07:28;;;;;;;7.55;6.28;;;;;;;18.22;100.00;101787.44;4962111;28;20050;-77
2023/06/11 03:09:55;;;;;;;11.98;6.57;;;;;;;18.21;100.00;101788.34;4990114;28;20065;-77
2023/06/11 03:12:23;;;;;;;9.30;6.15;;;;;;;18.18;100.00;101790.16;4970307;28;20038;-76
2023/06/11 03:14:50;;;;;;;8.23;6.05;;;;;;;18.17;100.00;101788.41;4993162;28;20428;-77
2023/06/11 03:17:17;;;;;;;6.88;5.03;;;;;;;18.16;100.00;101787.50;4958308;28;20497;-77
2023/06/11 03:19:45;;;;;;;11.65;6.18;;;;;;;18.15;100.00;101783.09;4951206;28;20042;-76
2023/06/11 03:22:12;;;;;;;8.82;6.53;;;;;;;18.13;100.00;101795.56;4940369;28;20057;-76
2023/06/11 03:24:40;;;;;;;9.38;6.18;;;;;;;18.12;100.00;101788.47;4985454;28;20045;-76
2023/06/11 03:27:16;;;;;;;10.43;6.38;;;;;;;18.10;100.00;101791.13;4951105;28;20062;-76
2023/06/11 03:29:53;;;;;;;6.20;5.60;;;;;;;18.10;100.00;101787.59;4965387;28;20049;-76
2023/06/11 03:32:22;;;;;;;10.52;6.30;;;;;;;18.09;100.00;101792.06;4949315;28;20051;-76
2023/06/11 03:34:51;;;;;;;8.98;6.32;;;;;;;18.10;100.00;101784.94;4953611;28;20051;-76
2023/06/11 03:37:21;;;;;;;8.18;5.75;;;;;;;18.10;100.00;101782.25;4945631;28;20050;-76
2023/06/11 03:39:52;;;;;;;7.57;5.80;;;;;;;18.09;100.00;101783.16;4971614;28;20042;-76
2023/06/11 03:42:19;;;;;;;8.60;6.20;;;;;;;18.12;100.00;101788.47;4961917;28;20077;-76
2023/06/11 03:44:49;;;;;;;8.82;5.93;;;;;;;18.10;100.00;101790.25;4951990;28;20065;-76
2023/06/11 03:47:17;;;;;;;8.40;5.63;;;;;;;18.10;100.00;101790.25;4939793;28;20055;-76
2023/06/11 03:49:45;;;;;;;9.73;6.05;;;;;;;18.11;100.00;101792.03;4945915;28;20058;-76
2023/06/11 03:52:13;;;;;;;9.88;6.47;;;;;;;18.12;100.00;101794.66;4968759;28;20050;-77
2023/06/11 03:54:41;;;;;;;6.93;5.53;;;;;;;18.11;100.00;101792.91;4941932;28;20050;-76
2023/06/11 03:57:08;;;;;;;9.73;6.50;;;;;;;18.14;100.00;101797.31;4954245;28;20050;-76
2023/06/11 03:59:35;;;;;;;8.63;6.28;;;;;;;18.14;100.00;101796.44;4974042;28;20799;-76
2023/06/11 04:02:03;;;;;;;9.52;5.35;;;;;;;18.18;100.00;101792.81;4949999;28;20413;-76
2023/06/11 04:04:32;;;;;;;8.35;5.63;;;;;;;18.29;100.00;101802.44;4919705;28;20069;-76
2023/06/11 04:07:00;;;;;;;12.95;6.22;;;;;;;18.41;100.00;101797.84;4936154;28;20047;-76
2023/06/11 04:09:27;;;;;;;13.23;6.97;;;;;;;18.90;100.00;101799.78;4941837;28;20992;-77
2023/06/11 04:11:55;;;;;;;8.30;6.07;;;;;;;19.45;100.00;101796.16;4949040;28;20062;-76
2023/06/11 04:14:23;;;;;;;10.90;5.55;;;;;;;19.97;100.00;101809.47;4961495;28;20042;-76
2023/06/11 04:16:50;;;;;;;11.63;6.05;;;;;;;20.48;100.00;101798.53;4955337;28;20517;-77
2023/06/11 04:19:18;;;;;;;9.27;6.45;;;;;;;20.98;100.00;101793.78;4933836;28;20050;-76
2023/06/11 04:21:47;;;;;;;9.67;5.70;;;;;;;21.37;100.00;101792.78;4959010;28;20072;-77
2023/06/11 04:24:15;;;;;;;9.65;6.22;;;;;;;21.65;100.00;101795.63;4953746;28;20052;-76
2023/06/11 04:26:44;;;;;;;6.60;4.82;;;;;;;21.97;100.00;101797.38;4982885;28;20053;-76
2023/06/11 04:29:15;;;;;;;;;;;;;;;22.33;100.00;101799.03;4973119;28;20405;-77
2023/06/11 04:31:46;;;;;;;8.80;5.70;;;;;;;22.61;100.00;101799.03;4954435;28;19937;-77
2023/06/11 04:34:17;;;;;;;8.25;5.18;;;;;;;22.88;100.00;101796.38;4969771;28;20053;-76
2023/06/11 04:36:46;;;;;;;13.27;4.95;;;;;;;23.16;100.00;101790.97;4951010;28;20059;-77
2023/06/11 04:39:14;;;;;;;10.13;5.50;;;;;;;23.45;100.00;101797.16;4978154;28;20041;-77
2023/06/11 04:41:41;;;;;;;10.48;4.70;;;;;;;23.68;100.00;101794.47;4947662;28;20049;-77
2023/06/11 04:44:09;;;;;;;8.32;4.65;;;;;;;23.66;100.00;101796.34;4971872;28;20069;-76
2023/06/11 04:46:38;;;;;;;6.57;4.40;;;;;;;23.86;100.00;101792.97;4964487;28;20053;-77
2023/06/11 04:49:06;;;;;;;7.03;4.32;;;;;;;23.99;100.00;101793.38;4959868;28;20061;-77
2023/06/11 04:51:34;;;;;;;6.03;5.07;;;;;;;24.31;100.00;101783.19;4934493;28;20420;-77
2023/06/11 04:54:07;;;;;;;6.65;4.63;;;;;;;24.69;100.00;101795.13;4972965;28;20505;-77
2023/06/11 04:56:38;;;;;;;8.98;4.20;;;;;;;24.92;100.00;101778.97;4952379;28;20464;-76
2023/06/11 04:59:07;;;;;;;7.75;3.85;;;;;;;25.25;98.96;101793.69;4967698;28;20057;-77
2023/06/11 05:01:37;;;;;;;5.07;4.15;;;;;;;25.56;96.34;101788.75;4959672;28;20043;-76
2023/06/11 05:04:06;;;;;;;5.75;4.13;;;;;;;25.82;93.79;101784.88;4953239;28;20046;-77
2023/06/11 05:06:33;;;;;;;7.90;4.15;;;;;;;25.80;91.50;101790.38;4951615;28;20108;-76
2023/06/11 05:09:03;;;;;;;6.32;4.28;;;;;;;26.12;91.14;101793.41;4983584;28;20050;-76
2023/06/11 05:11:31;;;;;;;7.57;4.20;;;;;;;26.28;87.11;101795.41;4925513;28;21450;-77
2023/06/11 05:13:58;;;;;;;8.27;4.15;;;;;;;26.19;85.12;101794.88;4983373;28;20506;-77
2023/06/11 05:16:26;;;;;;;9.88;4.55;;;;;;;26.22;84.04;101792.03;4965670;28;20507;-76
2023/06/11 05:18:54;;;;;;;5.75;3.28;;;;;;;26.23;82.29;101788.38;4960856;28;20046;-76
2023/06/11 05:21:23;;;;;;;8.73;4.05;;;;;;;26.39;81.48;101790.34;4990392;28;20060;-77
2023/06/11 05:23:51;;;;;;;15.63;4.00;;;;;;;26.57;81.31;101789.44;4949253;28;20071;-77
2023/06/11 05:26:31;;;;;;;7.53;3.47;;;;;;;26.78;78.83;101790.22;4967784;28;20424;-76
2023/06/11 05:28:59;;;;;;;;;;;;;;;26.97;73.04;101795.56;4951380;28;20054;-77
2023/06/11 05:31:29;;;;;;;6.50;3.55;;;;;;;26.84;76.85;101787.25;4980463;28;19925;-76
2023/06/11 05:33:57;;;;;;;7.70;3.55;;;;;;;27.01;77.06;101794.50;4970311;28;20493;-76
2023/06/11 05:36:26;;;;;;;8.10;3.65;;;;;;;27.22;73.79;101794.31;4974403;28;20046;-76
2023/06/11 05:38:54;;;;;;;8.73;3.33;;;;;;;27.44;72.64;101793.25;4965423;28;20046;-76
2023/06/11 05:41:22;;;;;;;5.63;3.40;;;;;;;27.72;70.34;101796.22;4940034;28;20493;-76
2023/06/11 05:43:50;;;;;;;8.18;4.30;;;;;;;27.58;67.94;101787.94;4946237;28;20077;-76
2023/06/11 05:46:17;;;;;;;4.95;3.70;;;;;;;27.46;67.50;101797.59;4971962;28;20046;-76
2023/06/11 05:48:47;;;;;;;4.73;3.60;;;;;;;27.45;66.25;101798.59;4947971;28;20062;-76
2023/06/11 05:51:15;;;;;;;8.73;3.40;;;;;;;27.50;66.71;101793.78;4984742;28;20061;-76
2023/06/11 05:53:43;;;;;;;7.32;4.18;;;;;;;27.65;66.10;101796.63;4941952;28;20054;-76
2023/06/11 05:56:11;;;;;;;4.22;3.40;;;;;;;27.84;64.18;101796.50;4983708;28;20088;-76
2023/06/11 05:58:38;;;;;;;10.57;3.80;;;;;;;27.75;62.80;101787.03;4936788;28;20447;-76
2023/06/11 06:01:08;;;;;;;8.77;3.72;;;;;;;27.73;61.55;101788.97;4972416;28;20058;-76
2023/06/11 06:03:38;;;;;;;17.08;4.05;;;;;;;27.71;62.75;101796.28;4974099;28;20243;-76
2023/06/11 06:06:08;;;;;;;4.45;2.90;;;;;;;27.74;62.03;101797.00;4975856;28;20061;-76
2023/06/11 06:08:36;;;;;;;5.00;3.53;;;;;;;27.78;59.22;101801.28;4984111;28;20061;-76
2023/06/11 06:11:04;;;;;;;7.95;3.30;;;;;;;27.53;60.04;101809.88;4952099;28;20416;-76
2023/06/11 06:13:31;;;;;;;7.80;3.85;;;;;;;27.38;60.31;101795.31;4956920;28;20432;-76
2023/06/11 06:16:02;;;;;;;6.88;3.75;;;;;;;27.46;60.67;101799.44;4985842;28;20065;-76
2023/06/11 06:18:32;;;;;;;6.75;3.17;;;;;;;27.18;59.17;101806.25;4981044;28;20047;-76
2023/06/11 06:21:00;;;;;;;8.48;4.10;;;;;;;26.84;60.77;101811.56;4959242;28;20045;-76
2023/06/11 06:23:27;;;;;;;7.13;4.05;;;;;;;26.51;61.51;101805.97;4984847;28;20054;-76
2023/06/11 06:26:03;;;;;;;7.20;3.83;;;;;;;26.44;61.30;101799.97;4942235;28;20521;-77
2023/06/11 06:28:34;;;;;;;8.43;3.53;;;;;;;26.51;62.80;101797.84;4959853;28;20057;-76
2023/06/11 06:31:02;;;;;;;;;;;;;;;26.56;61.05;101805.72;4948720;28;20046;-76
2023/06/11 06:33:34;;;;;;;9.75;3.85;;;;;;;26.18;62.59;101805.75;4976506;28;20377;-77
2023/06/11 06:36:04;;;;;;;6.75;3.90;;;;;;;26.10;63.60;101805.25;4943453;28;20540;-77
2023/06/11 06:38:32;;;;;;;5.20;3.47;;;;;;;26.03;65.96;101810.94;4972462;28;20532;-77
2023/06/11 06:41:01;;;;;;;8.93;3.75;;;;;;;25.98;65.40;101806.69;4986972;28;20069;-77
2023/06/11 06:43:29;;;;;;;7.13;4.05;;;;;;;25.78;65.44;101805.75;4930145;28;20061;-77
2023/06/11 06:45:56;;;;;;;7.93;4.20;;;;;;;25.57;67.04;101806.72;4917472;28;20041;-78
2023/06/11 06:48:28;;;;;;;6.65;3.90;;;;;;;25.33;68.55;101806.88;4958755;28;20057;-77
2023/06/11 06:50:57;;;;;;;6.68;4.07;;;;;;;25.13;68.39;101802.28;4977303;28;20049;-78
2023/06/11 06:53:25;;;;;;;4.55;3.65;;;;;;;24.84;69.08;101804.41;4968795;28;20492;-77
2023/06/11 06:55:52;;;;;;;5.68;3.95;;;;;;;24.73;71.97;101809.38;4991990;28;20049;-77
2023/06/11 06:58:21;;;;;;;7.13;3.80;;;;;;;24.61;71.23;101807.16;4968977;28;20041;-83
2023/06/11 07:00:48;;;;;;;6.32;4.10;;;;;;;24.48;71.74;101807.63;4915330;28;20058;-77
2023/06/11 07:03:18;;;;;;;7.72;4.00;;;;;;;24.39;72.82;101807.13;4988653;28;20049;-77
2023/06/11 07:05:45;;;;;;;6.28;4.28;;;;;;;24.33;73.13;101806.41;4992461;28;20062;-77
2023/06/11 07:08:13;;;;;;;5.38;4.18;;;;;;;24.26;74.19;101804.03;4978347;28;20085;-77
2023/06/11 07:10:48;;;;;;;5.28;3.65;;;;;;;24.16;75.15;101810.69;4981050;28;20065;-77
2023/06/11 07:13:18;;;;;;;9.50;4.25;;;;;;;24.13;76.32;101809.88;4949630;28;20050;-77
2023/06/11 07:15:46;;;;;;;8.60;4.05;;;;;;;24.17;75.62;101820.53;4927759;28;20055;-77
2023/06/11 07:18:14;;;;;;;11.70;4.25;;;;;;;23.92;74.80;101821.47;4987271;28;20046;-77
2023/06/11 07:20:41;;;;;;;7.50;3.97;;;;;;;23.73;76.85;101824.81;4975161;28;20575;-77
2023/06/11 07:23:09;;;;;;;6.13;3.85;;;;;;;23.59;77.76;101827.13;4934151;28;20058;-77
2023/06/11 07:25:37;;;;;;;8.10;4.70;;;;;;;23.57;77.83;101836.16;4942639;28;20069;-77
2023/06/11 07:28:06;;;;;;;11.73;4.82;;;;;;;23.49;79.40;101837.31;4937102;28;20054;-76
2023/06/11 07:30:36;;;;;;;9.90;5.20;;;;;;;23.47;81.09;101827.56;4976829;28;20050;-76
2023/06/11 07:33:05;;;;;;;13.23;4.03;;;;;;;23.60;81.12;101833.38;4974319;28;20061;-77
2023/06/11 07:35:34;;;;;;;7.05;3.90;;;;;;;23.61;81.03;101833.34;4975122;28;20804;-77
2023/06/11 07:38:02;;;;;;;5.35;3.83;;;;;;;23.69;82.02;101833.91;4960917;28;20053;-77
2023/06/11 07:40:30;;;;;;;6.63;4.43;;;;;;;23.64;80.31;101824.25;4952204;28;20420;-77
2023/06/11 07:42:57;;;;;;;7.18;4.10;;;;;;;23.57;81.95;101823.59;4935068;28;20054;-77
2023/06/11 07:45:28;;;;;;;7.65;3.90;;;;;;;23.62;83.12;101823.44;4963866;28;20065;-77
2023/06/11 07:47:55;;;;;;;6.20;4.82;;;;;;;23.81;84.20;101819.16;4937975;28;20066;-77
2023/06/11 07:50:22;;;;;;;8.20;4.38;;;;;;;23.89;82.77;101824.25;4962099;28;20050;-76
2023/06/11 07:52:50;;;;;;;7.28;4.30;;;;;;;23.86;83.37;101824.41;4989153;28;20049;-77
2023/06/11 07:55:22;;;;;;;12.80;4.43;;;;;;;23.92;83.52;101819.66;4978807;28;20046;-76
2023/06/11 07:57:50;;;;;;;10.10;4.13;;;;;;;24.05;85.00;101824.59;4941323;28;20361;-76
2023/06/11 08:00:17;;;;;;;10.02;4.70;;;;;;;24.21;83.39;101830.25;4997201;28;20046;-77
2023/06/11 08:02:45;;;;;;;4.53;4.10;;;;;;;24.27;84.18;101824.63;4975576;28;20057;-76
2023/06/11 08:05:17;;;;;;;6.30;4.32;;;;;;;24.25;81.83;101827.41;4993411;28;20382;-77
2023/06/11 08:11:23;;;;;;;12.48;5.07;;;;;;;24.29;82.95;101828.13;4979483;28;20460;-76
2023/06/11 08:13:50;;;;;;;4.85;4.35;;;;;;;24.33;81.77;101824.41;4942682;28;20057;-76
2023/06/11 08:16:18;;;;;;;5.40;4.35;;;;;;;24.22;83.61;101821.25;4968719;28;20066;-76
2023/06/11 08:18:45;;;;;;;6.25;4.32;;;;;;;24.16;82.85;101821.47;4964459;28;20045;-76
2023/06/11 08:21:12;;;;;;;5.22;3.72;;;;;;;24.17;84.37;101818.72;4993805;28;20046;-76
2023/06/11 08:23:40;;;;;;;6.30;4.35;;;;;;;24.30;85.71;101820.00;4986958;28;20209;-77
2023/06/11 08:26:07;;;;;;;9.40;4.22;;;;;;;24.42;85.14;101815.94;4954507;28;20057;-77
2023/06/11 08:28:36;;;;;;;5.82;4.10;;;;;;;24.58;85.04;101818.06;4982892;28;20049;-76
2023/06/11 08:31:03;;;;;;;8.30;5.35;;;;;;;24.72;84.52;101810.28;4953930;28;20076;-77
2023/06/11 08:33:33;;;;;;;6.85;4.22;;;;;;;24.79;83.02;101811.78;4980457;28;20049;-76
2023/06/11 08:36:00;;;;;;;8.10;4.87;;;;;;;24.76;83.63;101811.91;4963243;28;20054;-76
2023/06/11 08:38:28;;;;;;;5.60;3.67;;;;;;;24.82;84.75;101811.69;5011715;28;20053;-76
2023/06/11 08:40:55;;;;;;;5.57;4.47;;;;;;;24.83;84.09;101810.72;4957120;28;20488;-75
2023/06/11 08:43:24;;;;;;;6.03;4.50;;;;;;;24.89;83.70;101805.06;4986122;28;20122;-75
2023/06/11 08:45:51;;;;;;;6.18;4.13;;;;;;;24.97;84.13;101811.97;4934432;28;20050;-77
2023/06/11 08:48:21;;;;;;;9.38;4.95;;;;;;;25.03;84.56;101809.91;4960765;28;20809;-77
2023/06/11 08:50:53;;;;;;;6.90;4.30;;;;;;;25.13;83.83;101812.22;4964787;28;20049;-76
2023/06/11 08:53:20;;;;;;;5.93;4.10;;;;;;;25.19;83.94;101802.03;4974242;28;20529;-77
2023/06/11 08:55:48;;;;;;;5.35;4.10;;;;;;;25.31;85.60;101814.13;4987256;28;20039;-76
2023/06/11 08:58:20;;;;;;;5.50;4.65;;;;;;;25.41;83.85;101810.09;4960770;28;20045;-77
2023/06/11 09:00:48;;;;;;;5.07;4.10;;;;;;;25.46;82.17;101807.19;5004616;28;20057;-78
2023/06/11 09:03:16;;;;;;;6.97;4.43;;;;;;;25.53;83.26;101807.81;4940160;28;20054;-77
2023/06/11 09:05:45;;;;;;;11.63;4.78;;;;;;;25.55;81.81;101811.31;4935378;28;20053;-77
2023/06/11 09:08:12;;;;;;;5.00;3.80;;;;;;;25.45;82.18;101805.44;4986379;28;20477;-77
2023/06/11 09:10:50;;;;;;;13.23;4.53;;;;;;;25.44;80.32;101812.69;4991651;28;20050;-76
2023/06/11 09:13:18;;;;;;;5.82;4.75;;;;;;;25.44;82.62;101807.28;4946621;28;20058;-77
2023/06/11 09:15:52;;;;;;;7.63;4.22;;;;;;;25.45;82.90;101806.31;5017782;28;20052;-77
2023/06/11 09:18:24;;;;;;;7.97;4.28;;;;;;;25.55;83.83;101805.91;4951478;28;20080;-76
2023/06/11 09:20:54;;;;;;;7.30;4.55;;;;;;;25.58;82.54;101805.78;4990406;28;20045;-77
2023/06/11 09:23:25;;;;;;;9.05;4.18;;;;;;;25.63;83.00;101809.13;4946716;28;20411;-77
2023/06/11 09:25:58;;;;;;;6.28;4.30;;;;;;;25.57;81.13;101804.03;4972564;28;20477;-77
2023/06/11 09:28:32;;;;;;;5.47;4.13;;;;;;;25.47;79.36;101803.56;4950487;28;20042;-77
2023/06/11 09:31:02;;;;;;;5.22;3.90;;;;;;;25.36;80.82;101811.25;4935156;28;20050;-77
2023/06/11 09:33:31;;;;;;;5.72;4.13;;;;;;;25.28;82.53;101815.16;4954271;28;20048;-76
2023/06/11 09:35:59;;;;;;;8.43;4.30;;;;;;;25.28;82.56;101816.97;4958514;28;20054;-76
2023/06/11 09:38:27;;;;;;;6.43;4.20;;;;;;;25.35;83.62;101814.88;4942646;28;20045;-76
2023/06/11 09:40:56;;;;;;;7.53;4.30;;;;;;;25.32;82.41;101815.91;4952314;28;20050;-77
2023/06/11 09:43:24;;;;;;;8.52;4.05;;;;;;;25.40;84.29;101816.44;4939844;28;20054;-77
2023/06/11 09:45:55;;;;;;;8.43;4.60;;;;;;;25.53;84.24;101814.06;4978384;28;20122;-77
2023/06/11 09:48:23;;;;;;;7.18;3.92;;;;;;;25.66;82.63;101809.00;4955533;28;20055;-77
2023/06/11 09:50:52;;;;;;;6.80;4.38;;;;;;;25.80;82.13;101808.38;4957923;28;20045;-77
2023/06/11 09:53:22;;;;;;;6.13;4.45;;;;;;;25.84;82.50;101802.78;4918212;28;20053;-77
2023/06/11 09:55:50;;;;;;;6.18;4.13;;;;;;;25.89;83.00;101797.16;4947592;28;20055;-77
2023/06/11 09:58:23;;;;;;;7.38;4.78;;;;;;;26.02;82.50;101802.91;4959517;28;20048;-77
2023/06/11 10:00:52;;;;;;;5.50;4.17;;;;;;;26.13;82.55;101810.50;4957329;28;20417;-77
2023/06/11 10:03:20;;;;;;;7.67;4.70;;;;;;;26.23;82.61;101803.72;4960105;28;20294;-77
2023/06/11 10:05:48;;;;;;;5.97;4.50;;;;;;;26.33;81.75;101805.00;4936760;28;20304;-76
2023/06/11 10:08:20;;;;;;;5.35;3.97;;;;;;;26.46;81.95;101805.31;4964680;28;20046;-76
2023/06/11 10:10:54;;;;;;;6.65;3.95;;;;;;;26.48;80.97;101806.09;4941205;28;20074;-76
2023/06/11 10:13:32;;;;;;;5.15;4.15;;;;;;;26.48;79.36;101802.53;4956619;28;20414;-77
2023/06/11 10:16:06;;;;;;;6.50;4.28;;;;;;;26.40;80.86;101809.19;4956931;28;20045;-76
2023/06/11 10:18:34;;;;;;;6.40;4.30;;;;;;;26.40;80.29;101801.06;4972928;28;20042;-75
2023/06/11 10:21:03;;;;;;;5.55;4.32;;;;;;;26.47;78.73;101804.38;4932555;28;20836;-76
2023/06/11 10:23:38;;;;;;;6.88;5.00;;;;;;;26.53;79.79;101803.19;4980301;28;20500;-76
2023/06/11 10:26:06;;;;;;;8.77;3.80;;;;;;;26.66;80.40;101801.66;4978758;28;20053;-77
2023/06/11 10:28:45;;;;;;;8.98;3.97;;;;;;;26.86;79.76;101802.50;4968170;28;20072;-75
2023/06/11 10:31:24;;;;;;;6.80;4.85;;;;;;;27.03;77.78;101800.69;4995772;28;20045;-76
2023/06/11 10:33:51;;;;;;;5.07;4.13;;;;;;;27.13;75.96;101805.66;5003182;28;20042;-76
2023/06/11 10:36:24;;;;;;;4.75;4.32;;;;;;;27.15;74.47;101812.72;4973968;28;20033;-77
2023/06/11 10:39:04;;;;;;;8.95;4.10;;;;;;;27.11;73.91;101803.00;4960687;28;20092;-75
2023/06/11 10:41:35;;;;;;;9.68;4.30;;;;;;;27.15;75.94;101804.59;4948749;28;20046;-76
2023/06/11 10:44:03;;;;;;;7.80;4.57;;;;;;;27.19;74.80;101808.88;5000021;28;20512;-76
2023/06/11 10:46:31;;;;;;;5.75;4.40;;;;;;;27.17;75.90;101810.81;4969422;28;20159;-76
2023/06/11 10:48:58;;;;;;;6.00;5.32;;;;;;;27.26;77.51;101801.38;4991672;28;20701;-77
2023/06/11 10:51:36;;;;;;;7.68;4.30;;;;;;;27.42;75.79;101813.13;4955368;28;20061;-76
2023/06/11 10:54:07;;;;;;;5.93;4.13;;;;;;;27.50;73.66;101793.78;4953027;28;20054;-77
2023/06/11 10:56:38;;;;;;;6.15;4.18;;;;;;;27.51;72.64;101795.53;4950449;28;20046;-78
2023/06/11 10:59:09;;;;;;;7.07;4.30;;;;;;;27.62;72.22;101797.69;4969659;28;20070;-78
2023/06/11 11:01:37;;;;;;;5.82;4.68;;;;;;;27.69;70.80;101800.91;4967623;28;20054;-78
2023/06/11 11:04:04;;;;;;;4.18;3.67;;;;;;;27.73;72.78;101806.09;4993847;28;20072;-78
2023/06/11 11:06:34;;;;;;;6.15;4.68;;;;;;;27.78;69.68;101797.72;4957545;28;20042;-76
2023/06/11 14:14:45;;;;;;;6.22;3.72;;;;;;;29.24;49.86;101712.56;4958070;28;20720;-76
2023/06/11 14:17:13;;;;;;;5.07;4.25;;;;;;;29.31;50.20;101719.34;4951152;28;20047;-76
2023/06/11 14:19:41;;;;;;;5.35;4.47;;;;;;;29.31;49.78;101722.94;4990366;28;20043;-76
2023/06/11 14:22:08;;;;;;;9.52;4.45;;;;;;;29.24;48.86;101717.97;4915735;28;20426;-77
2023/06/11 14:24:36;;;;;;;6.97;4.55;;;;;;;29.18;48.48;101716.53;4932901;28;20536;-77
2023/06/11 14:27:06;;;;;;;7.82;4.45;;;;;;;29.08;48.35;101721.59;4964008;28;20409;-77
2023/06/11 14:29:34;;;;;;;7.30;4.20;;;;;;;28.87;48.17;101718.38;4960177;28;20460;-76
2023/06/11 14:32:02;;;;;;;8.70;4.63;;;;;;;28.78;49.71;101708.94;4936130;28;20050;-75
2023/06/11 14:34:30;;;;;;;13.90;4.70;;;;;;;28.82;50.12;101719.59;4939758;28;20046;-76
2023/06/11 14:36:58;;;;;;;7.32;4.78;;;;;;;28.88;50.82;101709.25;4926398;28;20046;-76
2023/06/11 14:39:25;;;;;;;6.68;4.65;;;;;;;28.96;50.72;101719.63;4903031;28;20053;-76